Lady Cansen — V7YL6 — position and weather

sailwx.info

Track history (hours):
 
Tides and Currents Weather Stations Pressure Air Temp Water Temp Dewpoint Dewpoint Depression Visibility Wind Speed Wind Dir Waves Ship Positions

Lady Cansen

Last reported at 2018-May-14 13:58 UTC. Time now 2018-May-25 05:23 UTC.
Position N 31°57' W 080°31'.
Warning: this ship's position is 10 days out of date.

Length 179 m; draft 9.1 m.

Type: Cargo ship. MMSI: 538007235.

Date/timePositionNaut miles runAvg speedWind from/ knotsBaromVisibWave heightAir tempDewpointWater temp
2018-May-14 13:58N 31°57' W 080°31'712.0
2018-May-14 13:23N 31°58' W 080°39'411.2
2018-May-14 13:00N 31°58' W 080°44'510.4
2018-May-14 12:30N 32°02' W 080°49'510.0
2018-May-14 12:00N 32°02' W 080°55'5 9.2
2018-May-14 11:30N 32°05' W 080°59'3 6.5
2018-May-14 10:59N 32°05' W 081°03'3 5.8
2018-May-14 10:30N 32°06' W 081°06'1 1.1
2018-May-14 09:56N 32°06' W 081°07'0 0.0
2018-May-14 09:26N 32°06' W 081°07'0 0.0
2018-May-14 08:56N 32°06' W 081°07'0 0.0
2018-May-14 08:20N 32°06' W 081°07'0 0.0
2018-May-14 07:56N 32°06' W 081°07'0 0.0
2018-May-14 07:20N 32°06' W 081°07'0 0.0
2018-May-14 06:50N 32°06' W 081°07'0 0.0
2018-May-14 06:26N 32°06' W 081°07'0 0.0
2018-May-14 05:44N 32°06' W 081°07'0 0.0
2018-May-14 05:26N 32°06' W 081°07'0 0.0
2018-May-14 04:50N 32°06' W 081°07'0 0.0
2018-May-14 04:26N 32°06' W 081°07'0 0.0
2018-May-14 03:32N 32°06' W 081°07'0 0.0
2018-May-14 03:26N 32°06' W 081°07'0 0.0
2018-May-14 02:56N 32°06' W 081°07'0 0.0
2018-May-14 02:26N 32°06' W 081°07'0 0.0
2018-May-14 01:56N 32°06' W 081°07'0 0.0
2018-May-14 01:26N 32°06' W 081°07'0 0.0
2018-May-14 00:56N 32°06' W 081°07'0 0.0
2018-May-14 00:20N 32°06' W 081°07'0 0.0
2018-May-13 23:56N 32°06' W 081°07'0 0.0
2018-May-13 23:26N 32°06' W 081°07'0 0.0
2018-May-13 22:44N 32°06' W 081°07'0 0.0
2018-May-13 22:08N 32°06' W 081°07'0 0.0
2018-May-13 21:56N 32°06' W 081°07'0 0.0
2018-May-13 21:14N 32°06' W 081°07'0 0.0
2018-May-13 20:50N 32°06' W 081°07'0 0.0
2018-May-13 20:26N 32°06' W 081°07'0 0.0
2018-May-13 19:56N 32°06' W 081°07'0 0.0
2018-May-13 19:26N 32°06' W 081°07'0 0.0
2018-May-13 18:56N 32°06' W 081°07'0 0.0
2018-May-13 18:14N 32°06' W 081°07'0 0.0
2018-May-13 17:50N 32°06' W 081°07'0 0.0
2018-May-13 17:26N 32°06' W 081°07'0 0.0
2018-May-13 16:32N 32°06' W 081°07'0 0.0
2018-May-13 16:20N 32°06' W 081°07'0 0.0
2018-May-13 15:56N 32°06' W 081°07'0 0.0
2018-May-13 15:26N 32°06' W 081°07'0 0.0
2018-May-13 14:56N 32°06' W 081°07'0 0.0
2018-May-13 14:20N 32°06' W 081°07'0 0.0
2018-May-13 13:56N 32°06' W 081°07'0 0.0
2018-May-13 13:26N 32°06' W 081°07'0 0.0
2018-May-13 12:56N 32°06' W 081°07'0 0.0
2018-May-13 12:26N 32°06' W 081°07'0 0.0
2018-May-13 11:50N 32°06' W 081°07'0 0.0
2018-May-13 11:26N 32°06' W 081°07'0 0.0
2018-May-13 10:56N 32°06' W 081°07'0 0.0
2018-May-13 10:26N 32°06' W 081°07'0 0.0
2018-May-13 09:50N 32°06' W 081°07'0 0.0
2018-May-13 09:27N 32°06' W 081°07'1 1.1
2018-May-13 08:59N 32°06' W 081°07'1 1.8
2018-May-13 08:29N 32°06' W 081°06'3 5.7
2018-May-13 08:00N 32°05' W 081°03'4 7.7
2018-May-13 07:30N 32°05' W 080°59'510.3
2018-May-13 07:00N 32°02' W 080°54'510.8
2018-May-13 06:30N 32°00' W 080°48'611.6
2018-May-13 06:00N 31°58' W 080°42'4 6.9
2018-May-13 05:25N 31°56' W 080°37'2 3.8
2018-May-13 04:54N 31°55' W 080°35'2 3.8
2018-May-13 04:29N 31°56' W 080°33'2 3.8
2018-May-13 04:00N 31°56' W 080°31'2 4.5
2018-May-13 03:30N 31°58' W 080°29'3 5.2
2018-May-13 03:00N 31°59' W 080°26'3 4.9
2018-May-13 02:30N 31°60' W 080°24'2 3.5
2018-May-13 01:59N 32°01' W 080°22'3 6.1
2018-May-13 01:30N 32°02' W 080°19'4 7.5
2018-May-13 01:00N 32°04' W 080°15'4 7.7
2018-May-13 00:29N 32°05' W 080°10'6 7.9
2018-May-12 23:46N 32°07' W 080°04'3 8.1
2018-May-12 23:28N 32°08' W 080°02'4 8.2
2018-May-12 23:00N 32°10' W 079°57'4 8.3
2018-May-12 22:28N 32°11' W 079°53'8 9.2
2018-May-12 21:35N 32°15' W 079°44'2510.8
2018-May-12 19:16N 32°24' W 079°16'311.0
2018-May-12 19:00N 32°25' W 079°13'13310.8
2018-May-12 06:40N 33°39' W 077°02'211.3
2018-May-12 06:28N 33°40' W 076°60'611.3
2018-May-12 05:56N 33°44' W 076°54'711.1
2018-May-12 05:19N 33°49' W 076°48'410.9
2018-May-12 04:58N 33°52' W 076°45'510.9
2018-May-12 04:29N 33°55' W 076°40'610.8
2018-May-12 03:57N 33°59' W 076°35'910.8
2018-May-12 03:08N 34°06' W 076°28'110.8
2018-May-12 03:00N 34°07' W 076°27'510.9
2018-May-12 02:30N 34°11' W 076°23'610.8
2018-May-12 01:59N 34°16' W 076°19'511.2
2018-May-12 01:30N 34°20' W 076°15'611.7
2018-May-12 01:00N 34°24' W 076°10'611.4
2018-May-12 00:30N 34°29' W 076°06'611.3
2018-May-12 00:00N 34°33' W 076°01'711.3
2018-May-11 23:21N 34°38' W 075°54'30410.5
2018-May-10 18:30N 39°27' W 073°54'1411.1
2018-May-10 17:15N 39°40' W 073°52'611.2
2018-May-10 16:43N 39°46' W 073°51'211.1
2018-May-10 16:30N 39°49' W 073°51'1611.2
2018-May-10 15:05N 40°04' W 073°49'111.0
2018-May-10 14:59N 40°06' W 073°49'611.4
2018-May-10 14:30N 40°11' W 073°49'510.8
2018-May-10 14:00N 40°16' W 073°49'510.7
2018-May-10 13:30N 40°22' W 073°48'4 8.1
2018-May-10 13:00N 40°26' W 073°49'5 9.6
2018-May-10 12:30N 40°29' W 073°54'611.1
2018-May-10 12:01N 40°31' W 074°00'510.1
2018-May-10 11:30N 40°36' W 074°03'5 9.7
2018-May-10 11:00N 40°41' W 074°02'510.3
2018-May-10 10:30N 40°46' W 074°01'5 9.7
2018-May-10 10:00N 40°50' W 073°57'5 9.5
2018-May-10 09:30N 40°54' W 073°55'4 7.7
2018-May-10 08:56N 40°59' W 073°54'4 9.1
2018-May-10 08:30N 41°03' W 073°53'4 8.7
2018-May-10 08:00N 41°07' W 073°53'6 9.3
2018-May-10 07:21N 41°12' W 073°57'4 9.9
2018-May-10 06:57N 41°16' W 073°58'  
2018-May-06 09:37N 40°51' W 073°57'3 8.0
2018-May-06 09:17N 40°48' W 073°58'3 9.0
2018-May-06 08:59N 40°46' W 074°00'510.2
2018-May-06 08:30N 40°41' W 074°02'510.5
2018-May-06 08:00N 40°36' W 074°02'510.4
2018-May-06 07:30N 40°31' W 073°60'611.0
2018-May-06 06:59N 40°29' W 073°53'510.6
2018-May-06 06:30N 40°26' W 073°47'5 9.8
2018-May-06 06:00N 40°27' W 073°41'  
Track history (hours):
 
Tides and Currents Weather Stations Pressure Air Temp Water Temp Dewpoint Dewpoint Depression Visibility Wind Speed Wind Dir Waves Ship Positions

Lady Cansen

Last reported at 2018-May-14 13:58 UTC. Time now 2018-May-25 05:23 UTC.
Position N 31°57' W 080°31'.
Warning: this ship's position is 10 days out of date.

Length 179 m; draft 9.1 m.

Type: Cargo ship. MMSI: 538007235.

Date/timePositionNaut miles runAvg speedWind from/ knotsBaromVisibWave heightAir tempDewpointWater temp
2018-May-14 13:58N 31°57' W 080°31'712.0
2018-May-14 13:23N 31°58' W 080°39'411.2
2018-May-14 13:00N 31°58' W 080°44'510.4
2018-May-14 12:30N 32°02' W 080°49'510.0
2018-May-14 12:00N 32°02' W 080°55'5 9.2
2018-May-14 11:30N 32°05' W 080°59'3 6.5
2018-May-14 10:59N 32°05' W 081°03'3 5.8
2018-May-14 10:30N 32°06' W 081°06'1 1.1
2018-May-14 09:56N 32°06' W 081°07'0 0.0
2018-May-14 09:26N 32°06' W 081°07'0 0.0
2018-May-14 08:56N 32°06' W 081°07'0 0.0
2018-May-14 08:20N 32°06' W 081°07'0 0.0
2018-May-14 07:56N 32°06' W 081°07'0 0.0
2018-May-14 07:20N 32°06' W 081°07'0 0.0
2018-May-14 06:50N 32°06' W 081°07'0 0.0
2018-May-14 06:26N 32°06' W 081°07'0 0.0
2018-May-14 05:44N 32°06' W 081°07'0 0.0
2018-May-14 05:26N 32°06' W 081°07'0 0.0
2018-May-14 04:50N 32°06' W 081°07'0 0.0
2018-May-14 04:26N 32°06' W 081°07'0 0.0
2018-May-14 03:32N 32°06' W 081°07'0 0.0
2018-May-14 03:26N 32°06' W 081°07'0 0.0
2018-May-14 02:56N 32°06' W 081°07'0 0.0
2018-May-14 02:26N 32°06' W 081°07'0 0.0
2018-May-14 01:56N 32°06' W 081°07'0 0.0
2018-May-14 01:26N 32°06' W 081°07'0 0.0
2018-May-14 00:56N 32°06' W 081°07'0 0.0
2018-May-14 00:20N 32°06' W 081°07'0 0.0
2018-May-13 23:56N 32°06' W 081°07'0 0.0
2018-May-13 23:26N 32°06' W 081°07'0 0.0
2018-May-13 22:44N 32°06' W 081°07'0 0.0
2018-May-13 22:08N 32°06' W 081°07'0 0.0
2018-May-13 21:56N 32°06' W 081°07'0 0.0
2018-May-13 21:14N 32°06' W 081°07'0 0.0
2018-May-13 20:50N 32°06' W 081°07'0 0.0
2018-May-13 20:26N 32°06' W 081°07'0 0.0
2018-May-13 19:56N 32°06' W 081°07'0 0.0
2018-May-13 19:26N 32°06' W 081°07'0 0.0
2018-May-13 18:56N 32°06' W 081°07'0 0.0
2018-May-13 18:14N 32°06' W 081°07'0 0.0
2018-May-13 17:50N 32°06' W 081°07'0 0.0
2018-May-13 17:26N 32°06' W 081°07'0 0.0
2018-May-13 16:32N 32°06' W 081°07'0 0.0
2018-May-13 16:20N 32°06' W 081°07'0 0.0
2018-May-13 15:56N 32°06' W 081°07'0 0.0
2018-May-13 15:26N 32°06' W 081°07'0 0.0
2018-May-13 14:56N 32°06' W 081°07'0 0.0
2018-May-13 14:20N 32°06' W 081°07'0 0.0
2018-May-13 13:56N 32°06' W 081°07'0 0.0
2018-May-13 13:26N 32°06' W 081°07'0 0.0
2018-May-13 12:56N 32°06' W 081°07'0 0.0
2018-May-13 12:26N 32°06' W 081°07'0 0.0
2018-May-13 11:50N 32°06' W 081°07'0 0.0
2018-May-13 11:26N 32°06' W 081°07'0 0.0
2018-May-13 10:56N 32°06' W 081°07'0 0.0
2018-May-13 10:26N 32°06' W 081°07'0 0.0
2018-May-13 09:50N 32°06' W 081°07'0 0.0
2018-May-13 09:27N 32°06' W 081°07'1 1.1
2018-May-13 08:59N 32°06' W 081°07'1 1.8
2018-May-13 08:29N 32°06' W 081°06'3 5.7
2018-May-13 08:00N 32°05' W 081°03'4 7.7
2018-May-13 07:30N 32°05' W 080°59'510.3
2018-May-13 07:00N 32°02' W 080°54'510.8
2018-May-13 06:30N 32°00' W 080°48'611.6
2018-May-13 06:00N 31°58' W 080°42'4 6.9
2018-May-13 05:25N 31°56' W 080°37'2 3.8
2018-May-13 04:54N 31°55' W 080°35'2 3.8
2018-May-13 04:29N 31°56' W 080°33'2 3.8
2018-May-13 04:00N 31°56' W 080°31'2 4.5
2018-May-13 03:30N 31°58' W 080°29'3 5.2
2018-May-13 03:00N 31°59' W 080°26'3 4.9
2018-May-13 02:30N 31°60' W 080°24'2 3.5
2018-May-13 01:59N 32°01' W 080°22'3 6.1
2018-May-13 01:30N 32°02' W 080°19'4 7.5
2018-May-13 01:00N 32°04' W 080°15'4 7.7
2018-May-13 00:29N 32°05' W 080°10'6 7.9
2018-May-12 23:46N 32°07' W 080°04'3 8.1
2018-May-12 23:28N 32°08' W 080°02'4 8.2
2018-May-12 23:00N 32°10' W 079°57'4 8.3
2018-May-12 22:28N 32°11' W 079°53'8 9.2
2018-May-12 21:35N 32°15' W 079°44'2510.8
2018-May-12 19:16N 32°24' W 079°16'311.0
2018-May-12 19:00N 32°25' W 079°13'13310.8
2018-May-12 06:40N 33°39' W 077°02'211.3
2018-May-12 06:28N 33°40' W 076°60'611.3
2018-May-12 05:56N 33°44' W 076°54'711.1
2018-May-12 05:19N 33°49' W 076°48'410.9
2018-May-12 04:58N 33°52' W 076°45'510.9
2018-May-12 04:29N 33°55' W 076°40'610.8
2018-May-12 03:57N 33°59' W 076°35'910.8
2018-May-12 03:08N 34°06' W 076°28'110.8
2018-May-12 03:00N 34°07' W 076°27'510.9
2018-May-12 02:30N 34°11' W 076°23'610.8
2018-May-12 01:59N 34°16' W 076°19'511.2
2018-May-12 01:30N 34°20' W 076°15'611.7
2018-May-12 01:00N 34°24' W 076°10'611.4
2018-May-12 00:30N 34°29' W 076°06'611.3
2018-May-12 00:00N 34°33' W 076°01'711.3
2018-May-11 23:21N 34°38' W 075°54'30410.5
2018-May-10 18:30N 39°27' W 073°54'1411.1
2018-May-10 17:15N 39°40' W 073°52'611.2
2018-May-10 16:43N 39°46' W 073°51'211.1
2018-May-10 16:30N 39°49' W 073°51'1611.2
2018-May-10 15:05N 40°04' W 073°49'111.0
2018-May-10 14:59N 40°06' W 073°49'611.4
2018-May-10 14:30N 40°11' W 073°49'510.8
2018-May-10 14:00N 40°16' W 073°49'510.7
2018-May-10 13:30N 40°22' W 073°48'4 8.1
2018-May-10 13:00N 40°26' W 073°49'5 9.6
2018-May-10 12:30N 40°29' W 073°54'611.1
2018-May-10 12:01N 40°31' W 074°00'510.1
2018-May-10 11:30N 40°36' W 074°03'5 9.7
2018-May-10 11:00N 40°41' W 074°02'510.3
2018-May-10 10:30N 40°46' W 074°01'5 9.7
2018-May-10 10:00N 40°50' W 073°57'5 9.5
2018-May-10 09:30N 40°54' W 073°55'4 7.7
2018-May-10 08:56N 40°59' W 073°54'4 9.1
2018-May-10 08:30N 41°03' W 073°53'4 8.7
2018-May-10 08:00N 41°07' W 073°53'6 9.3
2018-May-10 07:21N 41°12' W 073°57'4 9.9
2018-May-10 06:57N 41°16' W 073°58'  
2018-May-06 09:37N 40°51' W 073°57'3 8.0
2018-May-06 09:17N 40°48' W 073°58'3 9.0
2018-May-06 08:59N 40°46' W 074°00'510.2
2018-May-06 08:30N 40°41' W 074°02'510.5
2018-May-06 08:00N 40°36' W 074°02'510.4
2018-May-06 07:30N 40°31' W 073°60'611.0
2018-May-06 06:59N 40°29' W 073°53'510.6
2018-May-06 06:30N 40°26' W 073°47'5 9.8
2018-May-06 06:00N 40°27' W 073°41'  

Dump ship's entire track history